sensor_id;sensor_type;location;lat;lon;timestamp;temperature;humidity
4461;DHT22;2243;48.812;9.232;2023-02-22T00:00:17;5.90;99.90
4461;DHT22;2243;48.812;9.232;2023-02-22T00:02:55;5.80;99.90
4461;DHT22;2243;48.812;9.232;2023-02-22T00:05:29;5.90;99.90
4461;DHT22;2243;48.812;9.232;2023-02-22T00:08:01;5.80;99.90
4461;DHT22;2243;48.812;9.232;2023-02-22T00:10:31;5.90;99.90
4461;DHT22;2243;48.812;9.232;2023-02-22T00:13:04;6.00;99.90
4461;DHT22;2243;48.812;9.232;2023-02-22T00:15:36;6.00;99.90
4461;DHT22;2243;48.812;9.232;2023-02-22T00:18:12;5.90;99.90
4461;DHT22;2243;48.812;9.232;2023-02-22T00:20:44;5.80;99.90
4461;DHT22;2243;48.812;9.232;2023-02-22T00:23:21;5.70;99.90
4461;DHT22;2243;48.812;9.232;2023-02-22T00:25:52;5.70;99.90
4461;DHT22;2243;48.812;9.232;2023-02-22T00:28:24;5.80;99.90
4461;DHT22;2243;48.812;9.232;2023-02-22T00:30:55;5.70;99.90
4461;DHT22;2243;48.812;9.232;2023-02-22T00:33:27;5.70;99.90
4461;DHT22;2243;48.812;9.232;2023-02-22T00:35:58;5.60;99.90
4461;DHT22;2243;48.812;9.232;2023-02-22T00:38:29;5.50;99.90
4461;DHT22;2243;48.812;9.232;2023-02-22T00:41:00;5.50;99.90
4461;DHT22;2243;48.812;9.232;2023-02-22T00:43:31;5.40;99.90
4461;DHT22;2243;48.812;9.232;2023-02-22T00:46:03;5.50;99.90
4461;DHT22;2243;48.812;9.232;2023-02-22T00:48:34;5.60;99.90
4461;DHT22;2243;48.812;9.232;2023-02-22T00:51:05;5.60;99.90
4461;DHT22;2243;48.812;9.232;2023-02-22T00:53:36;5.50;99.90
4461;DHT22;2243;48.812;9.232;2023-02-22T00:56:07;5.50;99.90
4461;DHT22;2243;48.812;9.232;2023-02-22T00:58:38;5.30;99.90
4461;DHT22;2243;48.812;9.232;2023-02-22T01:01:09;5.30;99.90
4461;DHT22;2243;48.812;9.232;2023-02-22T01:03:40;5.30;99.90
4461;DHT22;2243;48.812;9.232;2023-02-22T01:06:11;5.20;99.90
4461;DHT22;2243;48.812;9.232;2023-02-22T01:08:46;5.20;99.90
4461;DHT22;2243;48.812;9.232;2023-02-22T01:11:18;5.20;99.90
4461;DHT22;2243;48.812;9.232;2023-02-22T01:13:48;5.20;99.90
4461;DHT22;2243;48.812;9.232;2023-02-22T01:16:20;5.10;99.90
4461;DHT22;2243;48.812;9.232;2023-02-22T01:18:51;5.20;99.90
4461;DHT22;2243;48.812;9.232;2023-02-22T01:21:22;5.10;99.90
4461;DHT22;2243;48.812;9.232;2023-02-22T01:23:53;5.10;99.90
4461;DHT22;2243;48.812;9.232;2023-02-22T01:26:24;5.10;99.90
4461;DHT22;2243;48.812;9.232;2023-02-22T01:28:55;5.00;99.90
4461;DHT22;2243;48.812;9.232;2023-02-22T01:31:26;5.00;99.90
4461;DHT22;2243;48.812;9.232;2023-02-22T01:33:57;5.10;99.90
4461;DHT22;2243;48.812;9.232;2023-02-22T01:36:28;5.00;99.90
4461;DHT22;2243;48.812;9.232;2023-02-22T01:38:59;5.00;99.90
4461;DHT22;2243;48.812;9.232;2023-02-22T01:41:30;5.10;99.90
4461;DHT22;2243;48.812;9.232;2023-02-22T01:44:31;5.00;99.90
4461;DHT22;2243;48.812;9.232;2023-02-22T01:47:06;5.00;99.90
4461;DHT22;2243;48.812;9.232;2023-02-22T01:49:44;5.00;99.90
4461;DHT22;2243;48.812;9.232;2023-02-22T01:52:19;4.90;99.90
4461;DHT22;2243;48.812;9.232;2023-02-22T01:54:56;4.90;99.90
4461;DHT22;2243;48.812;9.232;2023-02-22T01:57:35;4.90;99.90
4461;DHT22;2243;48.812;9.232;2023-02-22T02:00:10;5.00;99.90
4461;DHT22;2243;48.812;9.232;2023-02-22T02:03:08;5.00;99.90
4461;DHT22;2243;48.812;9.232;2023-02-22T02:05:38;5.00;99.90
4461;DHT22;2243;48.812;9.232;2023-02-22T02:08:32;5.10;99.90
4461;DHT22;2243;48.812;9.232;2023-02-22T02:11:08;5.10;99.90
4461;DHT22;2243;48.812;9.232;2023-02-22T02:13:39;5.10;99.90
4461;DHT22;2243;48.812;9.232;2023-02-22T02:16:11;5.00;99.90
4461;DHT22;2243;48.812;9.232;2023-02-22T02:18:42;5.00;99.90
4461;DHT22;2243;48.812;9.232;2023-02-22T02:21:36;4.90;99.90
4461;DHT22;2243;48.812;9.232;2023-02-22T02:24:35;4.90;99.90
4461;DHT22;2243;48.812;9.232;2023-02-22T02:27:46;4.90;99.90
4461;DHT22;2243;48.812;9.232;2023-02-22T02:42:48;4.70;99.90
4461;DHT22;2243;48.812;9.232;2023-02-22T02:45:43;4.80;99.90
4461;DHT22;2243;48.812;9.232;2023-02-22T02:48:25;4.80;99.90
4461;DHT22;2243;48.812;9.232;2023-02-22T02:50:59;4.80;99.90
4461;DHT22;2243;48.812;9.232;2023-02-22T02:53:34;4.80;99.90
4461;DHT22;2243;48.812;9.232;2023-02-22T02:56:07;5.00;99.90
4461;DHT22;2243;48.812;9.232;2023-02-22T02:58:47;5.10;99.90
4461;DHT22;2243;48.812;9.232;2023-02-22T03:04:17;5.20;99.90
4461;DHT22;2243;48.812;9.232;2023-02-22T03:07:05;5.30;99.90
4461;DHT22;2243;48.812;9.232;2023-02-22T03:10:05;5.30;99.90
4461;DHT22;2243;48.812;9.232;2023-02-22T03:16:11;5.40;99.90
4461;DHT22;2243;48.812;9.232;2023-02-22T03:21:30;5.40;99.90
4461;DHT22;2243;48.812;9.232;2023-02-22T03:27:06;5.40;99.90
4461;DHT22;2243;48.812;9.232;2023-02-22T03:29:43;5.40;99.90
4461;DHT22;2243;48.812;9.232;2023-02-22T03:32:20;5.40;99.90
4461;DHT22;2243;48.812;9.232;2023-02-22T03:35:00;5.40;99.90
4461;DHT22;2243;48.812;9.232;2023-02-22T03:37:41;5.40;99.90
4461;DHT22;2243;48.812;9.232;2023-02-22T03:40:22;5.50;99.90
4461;DHT22;2243;48.812;9.232;2023-02-22T03:43:06;5.60;99.90
4461;DHT22;2243;48.812;9.232;2023-02-22T03:45:42;5.40;99.90
4461;DHT22;2243;48.812;9.232;2023-02-22T03:48:49;5.40;99.90
4461;DHT22;2243;48.812;9.232;2023-02-22T03:51:23;5.40;99.90
4461;DHT22;2243;48.812;9.232;2023-02-22T03:53:55;5.30;99.90
4461;DHT22;2243;48.812;9.232;2023-02-22T03:56:32;5.30;99.90
4461;DHT22;2243;48.812;9.232;2023-02-22T03:59:09;5.30;99.90
4461;DHT22;2243;48.812;9.232;2023-02-22T04:01:40;5.30;99.90
4461;DHT22;2243;48.812;9.232;2023-02-22T04:04:11;5.40;99.90
4461;DHT22;2243;48.812;9.232;2023-02-22T04:06:42;5.40;99.90
4461;DHT22;2243;48.812;9.232;2023-02-22T04:09:15;5.30;99.90
4461;DHT22;2243;48.812;9.232;2023-02-22T04:11:46;5.30;99.90
4461;DHT22;2243;48.812;9.232;2023-02-22T04:14:18;5.30;99.90
4461;DHT22;2243;48.812;9.232;2023-02-22T04:16:49;5.30;99.90
4461;DHT22;2243;48.812;9.232;2023-02-22T04:19:20;5.30;99.90
4461;DHT22;2243;48.812;9.232;2023-02-22T04:21:51;5.30;99.90
4461;DHT22;2243;48.812;9.232;2023-02-22T04:24:22;5.30;99.90
4461;DHT22;2243;48.812;9.232;2023-02-22T04:26:53;5.30;99.90
4461;DHT22;2243;48.812;9.232;2023-02-22T04:29:24;5.40;99.90
4461;DHT22;2243;48.812;9.232;2023-02-22T04:31:55;5.60;99.90
4461;DHT22;2243;48.812;9.232;2023-02-22T04:34:26;5.70;99.90
4461;DHT22;2243;48.812;9.232;2023-02-22T04:36:57;5.80;99.90
4461;DHT22;2243;48.812;9.232;2023-02-22T04:39:28;5.90;99.90
4461;DHT22;2243;48.812;9.232;2023-02-22T04:41:59;5.60;99.90
4461;DHT22;2243;48.812;9.232;2023-02-22T04:44:31;5.60;99.90
4461;DHT22;2243;48.812;9.232;2023-02-22T04:47:02;5.50;99.90
4461;DHT22;2243;48.812;9.232;2023-02-22T04:49:33;5.50;99.90
4461;DHT22;2243;48.812;9.232;2023-02-22T04:52:04;5.50;99.90
4461;DHT22;2243;48.812;9.232;2023-02-22T04:54:35;5.60;99.90
4461;DHT22;2243;48.812;9.232;2023-02-22T04:57:06;5.70;99.90
4461;DHT22;2243;48.812;9.232;2023-02-22T04:59:37;5.40;99.90
4461;DHT22;2243;48.812;9.232;2023-02-22T05:02:08;5.30;99.90
4461;DHT22;2243;48.812;9.232;2023-02-22T05:04:38;5.50;99.90
4461;DHT22;2243;48.812;9.232;2023-02-22T05:07:10;5.50;99.90
4461;DHT22;2243;48.812;9.232;2023-02-22T05:09:41;5.60;99.90
4461;DHT22;2243;48.812;9.232;2023-02-22T05:12:12;5.60;99.90
4461;DHT22;2243;48.812;9.232;2023-02-22T05:14:42;5.60;99.90
4461;DHT22;2243;48.812;9.232;2023-02-22T05:17:14;5.70;99.90
4461;DHT22;2243;48.812;9.232;2023-02-22T05:19:45;5.70;99.90
4461;DHT22;2243;48.812;9.232;2023-02-22T05:22:17;5.50;99.90
4461;DHT22;2243;48.812;9.232;2023-02-22T05:24:48;5.50;99.90
4461;DHT22;2243;48.812;9.232;2023-02-22T05:27:19;5.60;99.90
4461;DHT22;2243;48.812;9.232;2023-02-22T05:29:50;5.70;99.90
4461;DHT22;2243;48.812;9.232;2023-02-22T05:32:21;5.50;99.90
4461;DHT22;2243;48.812;9.232;2023-02-22T05:34:52;5.40;99.90
4461;DHT22;2243;48.812;9.232;2023-02-22T05:37:22;5.20;99.90
4461;DHT22;2243;48.812;9.232;2023-02-22T05:39:53;5.20;99.90
4461;DHT22;2243;48.812;9.232;2023-02-22T05:42:25;5.50;99.90
4461;DHT22;2243;48.812;9.232;2023-02-22T05:44:56;5.50;99.90
4461;DHT22;2243;48.812;9.232;2023-02-22T05:47:27;5.40;99.90
4461;DHT22;2243;48.812;9.232;2023-02-22T05:49:58;5.30;99.90
4461;DHT22;2243;48.812;9.232;2023-02-22T05:52:29;5.40;99.90
4461;DHT22;2243;48.812;9.232;2023-02-22T05:54:59;5.50;99.90
4461;DHT22;2243;48.812;9.232;2023-02-22T05:57:30;5.40;99.90
4461;DHT22;2243;48.812;9.232;2023-02-22T06:00:04;5.40;99.90
4461;DHT22;2243;48.812;9.232;2023-02-22T06:02:36;5.40;99.90
4461;DHT22;2243;48.812;9.232;2023-02-22T06:05:07;5.50;99.90
4461;DHT22;2243;48.812;9.232;2023-02-22T06:07:38;5.40;99.90
4461;DHT22;2243;48.812;9.232;2023-02-22T06:10:09;5.50;99.90
4461;DHT22;2243;48.812;9.232;2023-02-22T06:12:40;5.40;99.90
4461;DHT22;2243;48.812;9.232;2023-02-22T06:15:11;5.60;99.90
4461;DHT22;2243;48.812;9.232;2023-02-22T06:17:42;5.60;99.90
4461;DHT22;2243;48.812;9.232;2023-02-22T06:20:16;5.50;99.90
4461;DHT22;2243;48.812;9.232;2023-02-22T06:22:49;5.50;99.90
4461;DHT22;2243;48.812;9.232;2023-02-22T06:25:24;5.50;99.90
4461;DHT22;2243;48.812;9.232;2023-02-22T06:27:58;5.50;99.90
4461;DHT22;2243;48.812;9.232;2023-02-22T06:30:30;5.60;99.90
4461;DHT22;2243;48.812;9.232;2023-02-22T06:33:01;5.60;99.90
4461;DHT22;2243;48.812;9.232;2023-02-22T06:35:32;5.60;99.90
4461;DHT22;2243;48.812;9.232;2023-02-22T06:38:03;5.80;99.90
4461;DHT22;2243;48.812;9.232;2023-02-22T06:40:34;5.80;99.90
4461;DHT22;2243;48.812;9.232;2023-02-22T06:43:06;5.80;99.90
4461;DHT22;2243;48.812;9.232;2023-02-22T06:45:38;5.90;99.90
4461;DHT22;2243;48.812;9.232;2023-02-22T06:48:09;5.90;99.90
4461;DHT22;2243;48.812;9.232;2023-02-22T06:50:40;5.90;99.90
4461;DHT22;2243;48.812;9.232;2023-02-22T06:53:11;5.80;99.90
4461;DHT22;2243;48.812;9.232;2023-02-22T06:55:42;5.80;99.90
4461;DHT22;2243;48.812;9.232;2023-02-22T06:58:15;5.70;99.90
4461;DHT22;2243;48.812;9.232;2023-02-22T07:00:46;5.80;99.90
4461;DHT22;2243;48.812;9.232;2023-02-22T07:03:17;5.60;99.90
4461;DHT22;2243;48.812;9.232;2023-02-22T07:05:48;5.60;99.90
4461;DHT22;2243;48.812;9.232;2023-02-22T07:08:19;5.70;99.90
4461;DHT22;2243;48.812;9.232;2023-02-22T07:10:49;5.80;99.90
4461;DHT22;2243;48.812;9.232;2023-02-22T07:13:22;5.80;99.90
4461;DHT22;2243;48.812;9.232;2023-02-22T07:15:52;5.70;99.90
4461;DHT22;2243;48.812;9.232;2023-02-22T07:18:23;5.70;99.90
4461;DHT22;2243;48.812;9.232;2023-02-22T07:20:54;5.70;99.90
4461;DHT22;2243;48.812;9.232;2023-02-22T07:23:25;5.80;99.90
4461;DHT22;2243;48.812;9.232;2023-02-22T07:25:59;6.00;99.90
4461;DHT22;2243;48.812;9.232;2023-02-22T07:28:31;6.00;99.90
4461;DHT22;2243;48.812;9.232;2023-02-22T07:31:02;5.90;99.90
4461;DHT22;2243;48.812;9.232;2023-02-22T07:33:34;5.90;99.90
4461;DHT22;2243;48.812;9.232;2023-02-22T07:36:05;5.90;99.90
4461;DHT22;2243;48.812;9.232;2023-02-22T07:38:36;6.10;99.90
4461;DHT22;2243;48.812;9.232;2023-02-22T07:41:07;6.10;99.90
4461;DHT22;2243;48.812;9.232;2023-02-22T07:43:38;6.10;99.90
4461;DHT22;2243;48.812;9.232;2023-02-22T07:46:09;6.00;99.90
4461;DHT22;2243;48.812;9.232;2023-02-22T07:48:40;6.10;99.90
4461;DHT22;2243;48.812;9.232;2023-02-22T07:51:14;6.30;99.90
4461;DHT22;2243;48.812;9.232;2023-02-22T07:53:47;6.40;99.90
4461;DHT22;2243;48.812;9.232;2023-02-22T07:56:18;6.50;99.90
4461;DHT22;2243;48.812;9.232;2023-02-22T07:58:49;6.70;99.90
4461;DHT22;2243;48.812;9.232;2023-02-22T08:01:20;6.80;99.90
4461;DHT22;2243;48.812;9.232;2023-02-22T08:03:51;6.90;99.90
4461;DHT22;2243;48.812;9.232;2023-02-22T08:06:23;6.90;99.90
4461;DHT22;2243;48.812;9.232;2023-02-22T08:08:55;7.00;99.90
4461;DHT22;2243;48.812;9.232;2023-02-22T08:11:26;7.10;99.90
4461;DHT22;2243;48.812;9.232;2023-02-22T08:13:57;7.10;99.90
4461;DHT22;2243;48.812;9.232;2023-02-22T08:16:28;7.20;99.90
4461;DHT22;2243;48.812;9.232;2023-02-22T08:18:59;7.20;99.90
4461;DHT22;2243;48.812;9.232;2023-02-22T08:21:29;7.40;99.90
4461;DHT22;2243;48.812;9.232;2023-02-22T08:24:01;7.50;99.90
4461;DHT22;2243;48.812;9.232;2023-02-22T08:26:32;7.60;99.90
4461;DHT22;2243;48.812;9.232;2023-02-22T08:29:03;7.60;99.90
4461;DHT22;2243;48.812;9.232;2023-02-22T08:31:34;7.60;99.90
4461;DHT22;2243;48.812;9.232;2023-02-22T08:34:05;7.50;99.90
4461;DHT22;2243;48.812;9.232;2023-02-22T08:36:41;7.60;99.90
4461;DHT22;2243;48.812;9.232;2023-02-22T08:39:12;7.70;99.90
4461;DHT22;2243;48.812;9.232;2023-02-22T08:41:43;7.70;99.90
4461;DHT22;2243;48.812;9.232;2023-02-22T08:44:14;7.90;99.90
4461;DHT22;2243;48.812;9.232;2023-02-22T08:46:45;8.00;99.90
4461;DHT22;2243;48.812;9.232;2023-02-22T08:49:17;8.00;99.90
4461;DHT22;2243;48.812;9.232;2023-02-22T08:51:48;8.30;99.90
4461;DHT22;2243;48.812;9.232;2023-02-22T08:54:19;8.40;99.90
4461;DHT22;2243;48.812;9.232;2023-02-22T08:56:52;8.50;99.90
4461;DHT22;2243;48.812;9.232;2023-02-22T08:59:23;8.60;99.90
4461;DHT22;2243;48.812;9.232;2023-02-22T09:01:54;8.60;99.90
4461;DHT22;2243;48.812;9.232;2023-02-22T09:04:25;8.50;99.90
4461;DHT22;2243;48.812;9.232;2023-02-22T09:06:56;8.60;99.90
4461;DHT22;2243;48.812;9.232;2023-02-22T09:09:27;8.80;99.90
4461;DHT22;2243;48.812;9.232;2023-02-22T09:11:57;9.00;99.90
4461;DHT22;2243;48.812;9.232;2023-02-22T09:14:28;9.00;99.90
4461;DHT22;2243;48.812;9.232;2023-02-22T09:16:59;9.10;99.90
4461;DHT22;2243;48.812;9.232;2023-02-22T09:19:30;9.10;99.90
4461;DHT22;2243;48.812;9.232;2023-02-22T09:22:01;9.20;99.90
4461;DHT22;2243;48.812;9.232;2023-02-22T09:24:32;9.10;99.90
4461;DHT22;2243;48.812;9.232;2023-02-22T09:27:04;9.20;99.90
4461;DHT22;2243;48.812;9.232;2023-02-22T09:29:37;9.20;99.90
4461;DHT22;2243;48.812;9.232;2023-02-22T09:32:09;9.30;99.90
4461;DHT22;2243;48.812;9.232;2023-02-22T09:34:40;9.40;99.90
4461;DHT22;2243;48.812;9.232;2023-02-22T09:37:15;9.50;99.90
4461;DHT22;2243;48.812;9.232;2023-02-22T09:39:47;9.60;99.90
4461;DHT22;2243;48.812;9.232;2023-02-22T09:45:15;9.80;99.90
4461;DHT22;2243;48.812;9.232;2023-02-22T09:47:59;9.90;99.90
4461;DHT22;2243;48.812;9.232;2023-02-22T09:50:52;10.00;99.90
4461;DHT22;2243;48.812;9.232;2023-02-22T09:53:39;10.10;99.90
4461;DHT22;2243;48.812;9.232;2023-02-22T09:56:15;10.20;99.90
4461;DHT22;2243;48.812;9.232;2023-02-22T09:58:50;10.30;99.90
4461;DHT22;2243;48.812;9.232;2023-02-22T10:01:39;10.40;99.90
4461;DHT22;2243;48.812;9.232;2023-02-22T10:04:23;10.60;99.90
4461;DHT22;2243;48.812;9.232;2023-02-22T10:07:40;10.70;99.90
4461;DHT22;2243;48.812;9.232;2023-02-22T10:10:17;10.90;99.90
4461;DHT22;2243;48.812;9.232;2023-02-22T10:13:24;11.00;99.90
4461;DHT22;2243;48.812;9.232;2023-02-22T10:19:38;11.20;99.90
4461;DHT22;2243;48.812;9.232;2023-02-22T10:22:31;11.30;99.90
4461;DHT22;2243;48.812;9.232;2023-02-22T10:25:19;11.50;99.90
4461;DHT22;2243;48.812;9.232;2023-02-22T10:28:01;11.60;99.90
4461;DHT22;2243;48.812;9.232;2023-02-22T10:30:39;11.80;99.90
4461;DHT22;2243;48.812;9.232;2023-02-22T10:33:20;12.00;99.90
4461;DHT22;2243;48.812;9.232;2023-02-22T10:35:53;12.00;99.90
4461;DHT22;2243;48.812;9.232;2023-02-22T10:38:31;12.20;99.90
4461;DHT22;2243;48.812;9.232;2023-02-22T10:43:40;12.40;99.90
4461;DHT22;2243;48.812;9.232;2023-02-22T10:46:15;12.50;99.90
4461;DHT22;2243;48.812;9.232;2023-02-22T10:48:51;12.70;99.90
4461;DHT22;2243;48.812;9.232;2023-02-22T10:51:24;12.80;99.90
4461;DHT22;2243;48.812;9.232;2023-02-22T10:56:47;13.00;99.90
4461;DHT22;2243;48.812;9.232;2023-02-22T10:59:38;13.30;99.90
4461;DHT22;2243;48.812;9.232;2023-02-22T11:02:32;13.40;99.90
4461;DHT22;2243;48.812;9.232;2023-02-22T11:05:04;13.70;99.90
4461;DHT22;2243;48.812;9.232;2023-02-22T11:07:35;13.80;99.90
4461;DHT22;2243;48.812;9.232;2023-02-22T11:10:07;13.80;99.90
4461;DHT22;2243;48.812;9.232;2023-02-22T11:12:41;14.00;99.90
4461;DHT22;2243;48.812;9.232;2023-02-22T11:15:24;14.00;99.90
4461;DHT22;2243;48.812;9.232;2023-02-22T11:17:58;14.20;99.90
4461;DHT22;2243;48.812;9.232;2023-02-22T11:20:35;14.10;99.90
4461;DHT22;2243;48.812;9.232;2023-02-22T11:23:09;14.20;99.90
4461;DHT22;2243;48.812;9.232;2023-02-22T11:25:41;14.20;99.90
4461;DHT22;2243;48.812;9.232;2023-02-22T11:34:00;14.60;99.50
4461;DHT22;2243;48.812;9.232;2023-02-22T11:36:33;14.60;99.80
4461;DHT22;2243;48.812;9.232;2023-02-22T11:39:23;14.80;99.50
4461;DHT22;2243;48.812;9.232;2023-02-22T11:42:23;14.60;99.70
4461;DHT22;2243;48.812;9.232;2023-02-22T11:45:16;14.60;99.90
4461;DHT22;2243;48.812;9.232;2023-02-22T11:47:54;14.60;99.90
4461;DHT22;2243;48.812;9.232;2023-02-22T12:05:10;14.80;99.60
4461;DHT22;2243;48.812;9.232;2023-02-22T12:14:12;15.00;99.40
4461;DHT22;2243;48.812;9.232;2023-02-22T12:19:38;15.00;99.40
4461;DHT22;2243;48.812;9.232;2023-02-22T12:22:29;15.10;99.30
4461;DHT22;2243;48.812;9.232;2023-02-22T12:27:40;15.30;99.20
4461;DHT22;2243;48.812;9.232;2023-02-22T12:30:23;15.50;98.80
4461;DHT22;2243;48.812;9.232;2023-02-22T12:33:02;15.60;98.00
4461;DHT22;2243;48.812;9.232;2023-02-22T12:35:48;15.90;97.70
4461;DHT22;2243;48.812;9.232;2023-02-22T12:38:38;15.70;97.90
4461;DHT22;2243;48.812;9.232;2023-02-22T12:41:36;15.50;97.90
4461;DHT22;2243;48.812;9.232;2023-02-22T12:44:36;15.60;97.90
4461;DHT22;2243;48.812;9.232;2023-02-22T12:47:15;15.70;97.40
4461;DHT22;2243;48.812;9.232;2023-02-22T12:49:58;15.80;96.90
4461;DHT22;2243;48.812;9.232;2023-02-22T12:52:56;15.80;96.90
4461;DHT22;2243;48.812;9.232;2023-02-22T12:55:37;15.90;96.70
4461;DHT22;2243;48.812;9.232;2023-02-22T12:58:26;15.90;96.90
4461;DHT22;2243;48.812;9.232;2023-02-22T13:01:16;16.00;96.70
4461;DHT22;2243;48.812;9.232;2023-02-22T13:03:53;16.00;96.40
4461;DHT22;2243;48.812;9.232;2023-02-22T13:21:14;16.00;95.10
4461;DHT22;2243;48.812;9.232;2023-02-22T13:23:57;16.10;94.90
4461;DHT22;2243;48.812;9.232;2023-02-22T13:35:26;16.10;94.20
4461;DHT22;2243;48.812;9.232;2023-02-22T13:38:16;16.50;93.80
4461;DHT22;2243;48.812;9.232;2023-02-22T13:44:08;16.60;94.20
4461;DHT22;2243;48.812;9.232;2023-02-22T13:52:23;16.40;93.60
4461;DHT22;2243;48.812;9.232;2023-02-22T13:55:00;16.50;93.10
4461;DHT22;2243;48.812;9.232;2023-02-22T13:57:43;16.60;93.40
4461;DHT22;2243;48.812;9.232;2023-02-22T14:00:22;16.80;93.30
4461;DHT22;2243;48.812;9.232;2023-02-22T14:02:57;16.80;92.70
4461;DHT22;2243;48.812;9.232;2023-02-22T14:10:57;16.80;92.30
4461;DHT22;2243;48.812;9.232;2023-02-22T14:14:07;16.70;92.90
4461;DHT22;2243;48.812;9.232;2023-02-22T14:16:28;16.50;93.30
4461;DHT22;2243;48.812;9.232;2023-02-22T14:19:18;16.30;93.30
4461;DHT22;2243;48.812;9.232;2023-02-22T14:24:44;15.80;94.80
4461;DHT22;2243;48.812;9.232;2023-02-22T14:27:16;15.80;95.20
4461;DHT22;2243;48.812;9.232;2023-02-22T14:29:56;15.90;95.20
4461;DHT22;2243;48.812;9.232;2023-02-22T14:32:32;15.70;95.20
4461;DHT22;2243;48.812;9.232;2023-02-22T14:35:09;15.70;95.40
4461;DHT22;2243;48.812;9.232;2023-02-22T14:37:57;15.60;95.90
4461;DHT22;2243;48.812;9.232;2023-02-22T14:40:35;15.50;96.50
4461;DHT22;2243;48.812;9.232;2023-02-22T14:43:16;15.40;97.00
4461;DHT22;2243;48.812;9.232;2023-02-22T14:45:54;15.40;97.00
4461;DHT22;2243;48.812;9.232;2023-02-22T14:48:36;15.30;97.10
4461;DHT22;2243;48.812;9.232;2023-02-22T14:51:31;15.30;97.20
4461;DHT22;2243;48.812;9.232;2023-02-22T14:54:35;15.20;97.40
4461;DHT22;2243;48.812;9.232;2023-02-22T14:57:22;15.10;97.50
4461;DHT22;2243;48.812;9.232;2023-02-22T15:03:00;15.00;98.00
4461;DHT22;2243;48.812;9.232;2023-02-22T15:05:36;14.90;98.20
4461;DHT22;2243;48.812;9.232;2023-02-22T15:08:14;14.90;98.50
4461;DHT22;2243;48.812;9.232;2023-02-22T15:10:50;14.90;98.80
4461;DHT22;2243;48.812;9.232;2023-02-22T15:13:24;14.80;99.00
4461;DHT22;2243;48.812;9.232;2023-02-22T15:15:58;14.70;99.30
4461;DHT22;2243;48.812;9.232;2023-02-22T15:18:40;14.70;99.50
4461;DHT22;2243;48.812;9.232;2023-02-22T15:21:15;14.60;99.90
4461;DHT22;2243;48.812;9.232;2023-02-22T15:23:57;14.60;99.90
4461;DHT22;2243;48.812;9.232;2023-02-22T15:26:37;14.50;99.90
4461;DHT22;2243;48.812;9.232;2023-02-22T15:29:37;14.40;99.90
4461;DHT22;2243;48.812;9.232;2023-02-22T15:35:27;14.40;99.90
4461;DHT22;2243;48.812;9.232;2023-02-22T15:40:41;14.30;99.90
4461;DHT22;2243;48.812;9.232;2023-02-22T15:43:19;14.30;99.90
4461;DHT22;2243;48.812;9.232;2023-02-22T15:45:55;14.20;99.90
4461;DHT22;2243;48.812;9.232;2023-02-22T15:48:28;14.20;99.90
4461;DHT22;2243;48.812;9.232;2023-02-22T15:51:11;14.20;99.90
4461;DHT22;2243;48.812;9.232;2023-02-22T15:53:46;14.20;99.90
4461;DHT22;2243;48.812;9.232;2023-02-22T15:56:25;14.10;99.90
4461;DHT22;2243;48.812;9.232;2023-02-22T15:59:12;14.10;99.90
4461;DHT22;2243;48.812;9.232;2023-02-22T16:01:46;13.90;99.90
4461;DHT22;2243;48.812;9.232;2023-02-22T16:04:26;13.90;99.90
4461;DHT22;2243;48.812;9.232;2023-02-22T16:07:05;13.90;99.90
4461;DHT22;2243;48.812;9.232;2023-02-22T16:09:50;14.00;99.90
4461;DHT22;2243;48.812;9.232;2023-02-22T16:14:58;14.00;99.90
4461;DHT22;2243;48.812;9.232;2023-02-22T16:17:37;14.00;99.90
4461;DHT22;2243;48.812;9.232;2023-02-22T16:22:56;13.80;99.90
4461;DHT22;2243;48.812;9.232;2023-02-22T16:25:34;13.80;99.90
4461;DHT22;2243;48.812;9.232;2023-02-22T16:28:27;13.90;99.90
4461;DHT22;2243;48.812;9.232;2023-02-22T16:31:08;13.90;99.90
4461;DHT22;2243;48.812;9.232;2023-02-22T16:33:39;13.90;99.90
4461;DHT22;2243;48.812;9.232;2023-02-22T16:36:13;13.80;99.90
4461;DHT22;2243;48.812;9.232;2023-02-22T16:38:45;13.80;99.90
4461;DHT22;2243;48.812;9.232;2023-02-22T16:41:18;13.70;99.90
4461;DHT22;2243;48.812;9.232;2023-02-22T16:43:49;13.70;99.90
4461;DHT22;2243;48.812;9.232;2023-02-22T16:46:20;13.70;99.90
4461;DHT22;2243;48.812;9.232;2023-02-22T16:48:52;13.70;99.90
4461;DHT22;2243;48.812;9.232;2023-02-22T16:51:25;13.60;99.90
4461;DHT22;2243;48.812;9.232;2023-02-22T16:53:56;13.50;99.90
4461;DHT22;2243;48.812;9.232;2023-02-22T16:56:29;13.50;99.90
4461;DHT22;2243;48.812;9.232;2023-02-22T16:59:02;13.40;99.90
4461;DHT22;2243;48.812;9.232;2023-02-22T17:01:36;13.40;99.90
4461;DHT22;2243;48.812;9.232;2023-02-22T17:04:22;13.30;99.90
4461;DHT22;2243;48.812;9.232;2023-02-22T17:06:54;13.20;99.90
4461;DHT22;2243;48.812;9.232;2023-02-22T17:09:28;13.20;99.90
4461;DHT22;2243;48.812;9.232;2023-02-22T17:11:59;13.10;99.90
4461;DHT22;2243;48.812;9.232;2023-02-22T17:14:33;13.00;99.90
4461;DHT22;2243;48.812;9.232;2023-02-22T17:17:05;12.90;99.90
4461;DHT22;2243;48.812;9.232;2023-02-22T17:19:37;12.90;99.90
4461;DHT22;2243;48.812;9.232;2023-02-22T17:22:21;12.90;99.90
4461;DHT22;2243;48.812;9.232;2023-02-22T17:24:52;12.90;99.90
4461;DHT22;2243;48.812;9.232;2023-02-22T17:27:23;12.80;99.90
4461;DHT22;2243;48.812;9.232;2023-02-22T17:29:54;12.80;99.90
4461;DHT22;2243;48.812;9.232;2023-02-22T17:32:26;12.60;99.90
4461;DHT22;2243;48.812;9.232;2023-02-22T17:34:57;12.60;99.90
4461;DHT22;2243;48.812;9.232;2023-02-22T17:37:28;12.50;99.90
4461;DHT22;2243;48.812;9.232;2023-02-22T17:40:00;12.50;99.90
4461;DHT22;2243;48.812;9.232;2023-02-22T17:42:31;12.40;99.90
4461;DHT22;2243;48.812;9.232;2023-02-22T17:45:02;12.30;99.90
4461;DHT22;2243;48.812;9.232;2023-02-22T17:47:33;12.30;99.90
4461;DHT22;2243;48.812;9.232;2023-02-22T17:50:04;12.30;99.90
4461;DHT22;2243;48.812;9.232;2023-02-22T17:52:36;12.30;99.90
4461;DHT22;2243;48.812;9.232;2023-02-22T17:55:08;12.20;99.90
4461;DHT22;2243;48.812;9.232;2023-02-22T17:57:39;12.20;99.90
4461;DHT22;2243;48.812;9.232;2023-02-22T18:00:16;12.20;99.90
4461;DHT22;2243;48.812;9.232;2023-02-22T18:02:54;12.10;99.90
4461;DHT22;2243;48.812;9.232;2023-02-22T18:05:25;12.00;99.90
4461;DHT22;2243;48.812;9.232;2023-02-22T18:07:56;12.00;99.90
4461;DHT22;2243;48.812;9.232;2023-02-22T18:10:27;11.90;99.90
4461;DHT22;2243;48.812;9.232;2023-02-22T18:12:58;11.90;99.90
4461;DHT22;2243;48.812;9.232;2023-02-22T18:15:31;11.80;99.90
4461;DHT22;2243;48.812;9.232;2023-02-22T18:18:05;11.80;99.90
4461;DHT22;2243;48.812;9.232;2023-02-22T18:20:40;11.70;99.90
4461;DHT22;2243;48.812;9.232;2023-02-22T18:23:15;11.60;99.90
4461;DHT22;2243;48.812;9.232;2023-02-22T18:25:50;11.60;99.90
4461;DHT22;2243;48.812;9.232;2023-02-22T18:28:39;11.60;99.90
4461;DHT22;2243;48.812;9.232;2023-02-22T18:31:12;11.50;99.90
4461;DHT22;2243;48.812;9.232;2023-02-22T18:33:47;11.40;99.90
4461;DHT22;2243;48.812;9.232;2023-02-22T18:36:19;11.40;99.90
4461;DHT22;2243;48.812;9.232;2023-02-22T18:38:54;11.30;99.90
4461;DHT22;2243;48.812;9.232;2023-02-22T18:41:25;11.30;99.90
4461;DHT22;2243;48.812;9.232;2023-02-22T18:43:56;11.20;99.90
4461;DHT22;2243;48.812;9.232;2023-02-22T18:46:29;11.10;99.90
4461;DHT22;2243;48.812;9.232;2023-02-22T18:49:00;11.00;99.90
4461;DHT22;2243;48.812;9.232;2023-02-22T18:51:32;11.00;99.90
4461;DHT22;2243;48.812;9.232;2023-02-22T18:54:03;10.90;99.90
4461;DHT22;2243;48.812;9.232;2023-02-22T18:56:33;10.80;99.90
4461;DHT22;2243;48.812;9.232;2023-02-22T18:59:05;10.70;99.90
4461;DHT22;2243;48.812;9.232;2023-02-22T19:01:41;10.70;99.90
4461;DHT22;2243;48.812;9.232;2023-02-22T19:04:18;10.70;99.90
4461;DHT22;2243;48.812;9.232;2023-02-22T19:06:53;10.70;99.90